Flight Track Log - Related Links

Times and Time Zones

All times are in EDT time to prevent confusion due to time zone crossing. See the FLG4006 flight status page for this flight to view local times or setup timezone preferences in your user account.

Time Position Orientation Groundspeed Altitude Reporting Facility
EDT Latitude Longitude Course Direction KTS MPH feet Rate Location/Type
Sun 04:11:42 PM 39.7000 -86.3167 229° Southwest 150 173 1,800  Level Indianapolis TRACON
Sun 04:12:30 PM 39.6667 -86.3667 229° Southwest 176 203 3,000 1,667 Climbing Indianapolis TRACON
Sun 04:13:12 PM 39.6853 -86.4022 304° West 190 219 4,300 1,615 Climbing Indianapolis Center
Sun 04:14:14 PM 39.7558 -86.4147 352° North 247 284 5,800 829 Climbing Indianapolis Center
Sun 04:15:15 PM 39.8311 -86.4003 North 274 315 6,000 344 Climbing Indianapolis Center
Sun 04:16:16 PM 39.9042 -86.3553 25° Northeast 285 328 6,500 1,317 Climbing Indianapolis Center
Sun 04:17:18 PM 39.9767 -86.3100 26° Northeast 287 330 8,700 2,000 Climbing Indianapolis Center
Sun 04:18:19 PM 40.0492 -86.3436 340° North 286 329 10,600 1,574 Climbing Indianapolis Center
Sun 04:19:20 PM 40.1108 -86.4511 307° West 308 354 11,900 1,377 Climbing Indianapolis Center
Sun 04:20:21 PM 40.1683 -86.5447 309° West 327 376 13,400 1,323 Climbing Indianapolis Center
Sun 04:21:27 PM 40.2336 -86.6311 315° West 335 386 14,700 1,172 Climbing Chicago Center
Sun 04:22:29 PM 40.3056 -86.7156 318° Northwest 349 402 15,900 1,210 Climbing Chicago Center
Sun 04:23:31 PM 40.4175 -86.7733 339° North 363 418 17,200 1,258 Climbing Chicago Center
Sun 04:24:33 PM 40.5128 -86.8222 339° North 367 422 18,500 1,122 Climbing Chicago Center
Sun 04:25:34 PM 40.6081 -86.8722 338° Northwest 369 425 19,500 976 Climbing Chicago Center
Sun 04:26:36 PM 40.7083 -86.9264 338° Northwest 372 428 20,500 919 Climbing Chicago Center
Sun 04:27:38 PM 40.8064 -86.9781 338° Northwest 382 440 21,400 823 Climbing Chicago Center
Sun 04:28:40 PM 40.9014 -87.0325 337° Northwest 379 436 22,200 726 Climbing Chicago Center
Sun 04:29:42 PM 40.9994 -87.0867 337° Northwest 385 443 22,900 732 Climbing Chicago Center
Sun 04:30:43 PM 41.1197 -87.1500 338° Northwest 391 450 23,700 732 Climbing Chicago Center
Sun 04:31:45 PM 41.2192 -87.2047 338° Northwest 391 450 24,400 677 Climbing Chicago Center
Sun 04:32:47 PM 41.3156 -87.2594 337° Northwest 383 441 25,100 581 Climbing Chicago Center
Sun 04:33:49 PM 41.4153 -87.3156 337° Northwest 389 448 25,600 484 Climbing Chicago Center
Sun 04:34:51 PM 41.5167 -87.3717 337° Northwest 395 455 26,100 488 Climbing Chicago Center
Sun 04:35:52 PM 41.6381 -87.4381 338° Northwest 397 457 26,600 488 Climbing Chicago Center
Sun 04:36:54 PM 41.7389 -87.4956 337° Northwest 397 457 27,100 484 Climbing Chicago Center
Sun 04:37:56 PM 41.8408 -87.5514 338° Northwest 400 460 27,600 484 Climbing Chicago Center
Sun 04:38:58 PM 41.9350 -87.6217 331° Northwest 392 451 28,100 488 Climbing Chicago Center
Sun 04:39:59 PM 42.0194 -87.7106 322° Northwest 391 450 28,600 537 Climbing Chicago Center
Sun 04:41:01 PM 42.1194 -87.8147 322° Northwest 384 442 29,200 532 Climbing Chicago Center
Sun 04:42:03 PM 42.2031 -87.9033 322° Northwest 385 443 29,700 387 Climbing Chicago Center
Sun 04:43:05 PM 42.2861 -87.9900 322° Northwest 381 438 30,000 146 Climbing Chicago Center
Sun 04:44:06 PM 42.3719 -88.0822 322° Northwest 391 450 30,000  Level Chicago Center
Sun 04:45:08 PM 42.4597 -88.1756 322° Northwest 398 458 30,000  Level Chicago Center
Sun 04:46:10 PM 42.5481 -88.2711 321° Northwest 405 466 30,000  Level Chicago Center
Sun 04:47:12 PM 42.6517 -88.3825 322° Northwest 405 466 30,000  Level Chicago Center
Sun 04:48:13 PM 42.7403 -88.4778 322° Northwest 405 466 30,000  Level Chicago Center
Sun 04:49:15 PM 42.8289 -88.5733 322° Northwest 406 467 30,000  Level Chicago Center
Sun 04:50:17 PM 42.9181 -88.6692 322° Northwest 405 466 30,000  Level Chicago Center
Sun 04:51:18 PM 43.0075 -88.7681 321° Northwest 410 472 30,000  Level Chicago Center
Sun 04:52:20 PM 43.0972 -88.8656 322° Northwest 409 471 30,000  Level Chicago Center
Sun 04:53:22 PM 43.1883 -88.9647 322° Northwest 413 475 30,000  Level Chicago Center
Sun 04:54:23 PM 43.2769 -89.0633 321° Northwest 410 472 30,000  Level Chicago Center
Sun 04:55:25 PM 43.3814 -89.1783 321° Northwest 409 471 30,000  Level Chicago Center
Sun 04:56:27 PM 43.4717 -89.2783 321° Northwest 411 473 30,000  Level Chicago Center
Sun 04:57:28 PM 43.5617 -89.3778 321° Northwest 413 475 30,000  Level Chicago Center
Sun 04:58:30 PM 43.6497 -89.4775 321° Northwest 411 473 30,000  Level Chicago Center
Sun 04:59:31 PM 43.7389 -89.5778 321° Northwest 410 472 30,000  Level Chicago Center
Sun 05:00:33 PM 43.8272 -89.6767 321° Northwest 408 470 30,000  Level Chicago Center
Sun 05:01:35 PM 43.9158 -89.7764 321° Northwest 409 471 30,000  Level Chicago Center
Sun 05:02:36 PM 44.0036 -89.8764 321° Northwest 408 470 30,000  Level Chicago Center
Sun 05:03:38 PM 44.0756 -90.0267 304° West 405 466 30,000  Level Chicago Center
Sun 05:04:39 PM 44.1289 -90.1675 298° West 409 471 30,000  Level Chicago Center
Sun 05:05:40 PM 44.1786 -90.3075 296° West 405 466 30,000 -585 Level Minneapolis Center
Sun 05:06:42 PM 44.2306 -90.4500 297° West 410 472 28,800 -1,258 Descending Minneapolis Center
Sun 05:07:44 PM 44.2803 -90.5853 297° West 422 486 27,400 -1,463 Descending Minneapolis Center
Sun 05:08:45 PM 44.3383 -90.7450 297° West 426 490 25,800 -1,512 Descending Minneapolis Center
Sun 05:09:47 PM 44.3900 -90.8939 296° West 428 493 24,300 -1,452 Descending Minneapolis Center
Sun 05:10:49 PM 44.4433 -91.0397 297° West 427 491 22,800 -1,597 Descending Minneapolis Center
Sun 05:11:51 PM 44.5053 -91.2158 296° West 423 487 21,000 -1,610 Descending Minneapolis Center
Sun 05:12:52 PM 44.5533 -91.3550 296° West 408 470 19,500 -1,512 Descending Minneapolis Center
Sun 05:13:54 PM 44.6022 -91.4911 297° West 397 457 17,900 -1,500 Descending Minneapolis Center
Sun 05:14:56 PM 44.6483 -91.6297 295° West 394 453 16,400 -1,366 Descending Minneapolis Center
Sun 05:15:57 PM 44.6947 -91.7631 296° West 387 445 15,100 -1,268 Descending Minneapolis Center
Sun 05:16:59 PM 44.7406 -91.8961 296° West 381 438 13,800 -1,268 Descending Minneapolis Center
Sun 05:18:00 PM 44.7853 -92.0267 296° West 371 427 12,500 -1,366 Descending Minneapolis Center
Sun 05:19:02 PM 44.8361 -92.1756 296° West 353 406 11,000 -1,258 Descending Minneapolis Center
Sun 05:20:04 PM 44.8744 -92.2969 294° West 342 394 9,900 -484 Descending Minneapolis Center
Sun 05:21:06 PM 44.8389 -92.4169 247° West 335 386 10,000 -390 Climbing Minneapolis Center
Sun 05:22:07 PM 44.7947 -92.5119 237° Southwest 295 339 9,100 -488 Descending Minneapolis Center
Sun 05:23:09 PM 44.7581 -92.5875 236° Southwest 240 276 9,000 -829 Descending Minneapolis Center
Sun 05:24:10 PM 44.7228 -92.6608 236° Southwest 227 261 7,400 -976 Descending Minneapolis Center
Sun 05:25:12 PM 44.6994 -92.7381 247° West 210 242 7,000 -488 Descending Minneapolis Center
Sun 05:26:13 PM 44.7092 -92.8283 279° West 197 227 6,400 -488 Descending Minneapolis Center
Sun 05:27:15 PM 44.7383 -92.8897 304° West 188 216 6,000 -683 Descending Minneapolis Center
Sun 05:28:16 PM 44.7639 -92.9500 301° West 181 208 5,000 -927 Descending Minneapolis Center
Sun 05:29:18 PM 44.7886 -93.0067 302° West 172 198 4,100 -878 Descending Minneapolis Center
Sun 05:30:19 PM 44.8122 -93.0606 302° West 165 190 3,200 -878 Descending Minneapolis Center
Sun 05:31:21 PM 44.8356 -93.1144 301° West 164 189 2,300 -780 Descending Minneapolis Center
Sun 05:32:22 PM 44.8561 -93.1608 302° West 143 165 1,600 -689 Descending Minneapolis Center
Sun 05:34:00 PM 44.8667 -93.2167 270° West  Level FlightAware Approximate
Sun 05:41:00 PM 44.8820 -93.2218 270° West  Level Estimated

Login

Don't have an account? Register now (free) for customized features, flight alerts, and more!